Main page
METAR-TAF:

METAR-TAF

Airports :

Albertus Airport

Freeport, Illinois, United States

latitude: 42-14-47N, longitude: 089-34-56W, elevation: 859 ft

Current weather observation

The report was made 28 minutes ago, at 07:35 UTC
Wind 16 mph from the South/Southeast
Temperature 64°F
Humidity 88%
Pressure 29.51 in. Hg

METAR: KFEP 170735Z AUTO 15014KT 18/16 A2951 RMK AO2 LTG DSNT E T01770160

Time: 03:03 (08:03 UTC)


TAF: missing

Weather observations and forecasts of more than 4000 airports (METAR and TAF reports).

The available stations are represented by yellow and red dots on the map.

Hover mouse over dot to see the name of the station.

Then click to see weather observations and forecasts.

To change the map : click on the green buttons with a black cross to zoom in, on the green button with a dash to zoom out, or on the green arrows for adjacent maps.


METAR-TAF: